sensor_id;sensor_type;location;lat;lon;timestamp;pressure;altitude;pressure_sealevel;temperature;humidity
53900;BME280;40509;32.858;-116.858;2023-05-09T00:00:30;98063.31;;;22.38;47.59
53900;BME280;40509;32.858;-116.858;2023-05-09T00:02:57;98061.78;;;22.36;47.60
53900;BME280;40509;32.858;-116.858;2023-05-09T00:05:24;98055.09;;;22.42;47.75
53900;BME280;40509;32.858;-116.858;2023-05-09T00:07:52;98066.13;;;22.45;47.46
53900;BME280;40509;32.858;-116.858;2023-05-09T00:10:19;98074.53;;;22.49;47.59
53900;BME280;40509;32.858;-116.858;2023-05-09T00:12:46;98072.38;;;22.44;47.40
53900;BME280;40509;32.858;-116.858;2023-05-09T00:15:14;98070.88;;;22.42;47.61
53900;BME280;40509;32.858;-116.858;2023-05-09T00:17:42;98066.75;;;22.39;47.51
53900;BME280;40509;32.858;-116.858;2023-05-09T00:22:39;98069.97;;;22.51;46.99
53900;BME280;40509;32.858;-116.858;2023-05-09T00:25:08;98076.94;;;22.42;46.86
53900;BME280;40509;32.858;-116.858;2023-05-09T00:27:36;98071.25;;;22.47;46.49
53900;BME280;40509;32.858;-116.858;2023-05-09T00:30:04;98069.28;;;22.31;46.71
53900;BME280;40509;32.858;-116.858;2023-05-09T00:32:33;98077.97;;;22.31;46.38
53900;BME280;40509;32.858;-116.858;2023-05-09T00:35:00;98071.19;;;22.38;46.54
53900;BME280;40509;32.858;-116.858;2023-05-09T00:37:29;98063.06;;;22.32;46.51
53900;BME280;40509;32.858;-116.858;2023-05-09T00:39:57;98067.47;;;22.31;46.25
53900;BME280;40509;32.858;-116.858;2023-05-09T00:42:24;98060.13;;;22.35;46.20
53900;BME280;40509;32.858;-116.858;2023-05-09T00:44:52;98071.47;;;22.35;46.43
53900;BME280;40509;32.858;-116.858;2023-05-09T00:47:23;98073.19;;;22.27;47.04
53900;BME280;40509;32.858;-116.858;2023-05-09T00:49:50;98073.28;;;22.35;46.50
53900;BME280;40509;32.858;-116.858;2023-05-09T00:52:18;98073.19;;;22.27;46.42
53900;BME280;40509;32.858;-116.858;2023-05-09T00:54:50;98071.16;;;22.20;46.23
53900;BME280;40509;32.858;-116.858;2023-05-09T00:57:18;98075.75;;;22.18;46.31
53900;BME280;40509;32.858;-116.858;2023-05-09T00:59:46;98071.94;;;22.13;46.37
53900;BME280;40509;32.858;-116.858;2023-05-09T01:02:15;98072.75;;;22.13;46.52
53900;BME280;40509;32.858;-116.858;2023-05-09T01:04:44;98064.94;;;22.21;46.58
53900;BME280;40509;32.858;-116.858;2023-05-09T01:07:23;98067.19;;;22.16;46.39
53900;BME280;40509;32.858;-116.858;2023-05-09T01:13:09;98065.50;;;22.07;46.76
53900;BME280;40509;32.858;-116.858;2023-05-09T01:15:49;98054.88;;;21.99;46.88
53900;BME280;40509;32.858;-116.858;2023-05-09T01:18:29;98051.50;;;22.06;47.29
53900;BME280;40509;32.858;-116.858;2023-05-09T01:21:05;98051.50;;;22.06;47.18
53900;BME280;40509;32.858;-116.858;2023-05-09T01:32:09;98058.66;;;21.96;48.21
53900;BME280;40509;32.858;-116.858;2023-05-09T01:34:43;98058.66;;;21.96;48.06
53900;BME280;40509;32.858;-116.858;2023-05-09T01:37:13;98057.91;;;21.86;48.67
53900;BME280;40509;32.858;-116.858;2023-05-09T01:39:46;98061.88;;;21.90;48.43
53900;BME280;40509;32.858;-116.858;2023-05-09T01:42:18;98057.13;;;21.58;49.56
53900;BME280;40509;32.858;-116.858;2023-05-09T01:44:46;98051.44;;;21.80;49.08
53900;BME280;40509;32.858;-116.858;2023-05-09T01:47:15;98048.44;;;21.75;49.20
53900;BME280;40509;32.858;-116.858;2023-05-09T01:49:45;98050.91;;;21.77;49.24
53900;BME280;40509;32.858;-116.858;2023-05-09T01:52:15;98050.69;;;21.70;49.32
53900;BME280;40509;32.858;-116.858;2023-05-09T01:54:45;98054.28;;;21.69;49.54
53900;BME280;40509;32.858;-116.858;2023-05-09T01:57:13;98054.56;;;21.84;49.33
53900;BME280;40509;32.858;-116.858;2023-05-09T01:59:43;98060.13;;;21.99;49.10
53900;BME280;40509;32.858;-116.858;2023-05-09T02:02:12;98058.84;;;22.03;48.89
53900;BME280;40509;32.858;-116.858;2023-05-09T02:04:41;98060.50;;;22.04;49.02
53900;BME280;40509;32.858;-116.858;2023-05-09T02:07:10;98053.00;;;22.09;48.73
53900;BME280;40509;32.858;-116.858;2023-05-09T02:09:38;98049.91;;;22.14;48.55
53900;BME280;40509;32.858;-116.858;2023-05-09T02:12:06;98059.97;;;22.18;48.36
53900;BME280;40509;32.858;-116.858;2023-05-09T02:14:33;98061.34;;;22.22;48.44
53900;BME280;40509;32.858;-116.858;2023-05-09T02:17:00;98054.72;;;22.18;48.59
53900;BME280;40509;32.858;-116.858;2023-05-09T02:19:35;98061.34;;;22.22;48.66
53900;BME280;40509;32.858;-116.858;2023-05-09T02:22:02;98057.03;;;22.21;48.26
53900;BME280;40509;32.858;-116.858;2023-05-09T02:24:32;98062.00;;;22.24;47.85
53900;BME280;40509;32.858;-116.858;2023-05-09T02:27:02;98062.31;;;22.21;48.17
53900;BME280;40509;32.858;-116.858;2023-05-09T02:29:43;98054.09;;;22.24;48.24
53900;BME280;40509;32.858;-116.858;2023-05-09T02:32:18;98062.47;;;22.20;48.62
53900;BME280;40509;32.858;-116.858;2023-05-09T02:34:48;98061.34;;;22.22;48.58
53900;BME280;40509;32.858;-116.858;2023-05-09T02:37:18;98068.25;;;22.23;48.36
53900;BME280;40509;32.858;-116.858;2023-05-09T02:39:45;98069.59;;;22.28;48.56
53900;BME280;40509;32.858;-116.858;2023-05-09T02:42:17;98069.44;;;22.29;48.26
53900;BME280;40509;32.858;-116.858;2023-05-09T02:44:46;98067.94;;;22.27;48.69
53900;BME280;40509;32.858;-116.858;2023-05-09T02:47:16;98071.84;;;22.22;48.68
53900;BME280;40509;32.858;-116.858;2023-05-09T02:49:43;98075.44;;;22.21;48.68
53900;BME280;40509;32.858;-116.858;2023-05-09T02:52:11;98071.03;;;22.22;48.70
53900;BME280;40509;32.858;-116.858;2023-05-09T02:54:39;98070.03;;;22.23;48.67
53900;BME280;40509;32.858;-116.858;2023-05-09T02:57:07;98067.13;;;22.26;48.79
53900;BME280;40509;32.858;-116.858;2023-05-09T02:59:34;98078.16;;;22.30;48.63
53900;BME280;40509;32.858;-116.858;2023-05-09T03:02:02;98073.84;;;22.29;48.86
53900;BME280;40509;32.858;-116.858;2023-05-09T03:04:30;98076.19;;;22.32;48.78
53900;BME280;40509;32.858;-116.858;2023-05-09T03:06:58;98080.41;;;22.24;48.84
53900;BME280;40509;32.858;-116.858;2023-05-09T03:09:30;98089.28;;;22.23;48.95
53900;BME280;40509;32.858;-116.858;2023-05-09T03:11:58;98089.94;;;22.26;48.78
53900;BME280;40509;32.858;-116.858;2023-05-09T03:14:25;98084.53;;;22.27;48.95
53900;BME280;40509;32.858;-116.858;2023-05-09T03:16:52;98085.66;;;22.24;48.87
53900;BME280;40509;32.858;-116.858;2023-05-09T03:19:33;98090.63;;;22.28;49.02
53900;BME280;40509;32.858;-116.858;2023-05-09T03:22:01;98087.31;;;22.26;48.87
53900;BME280;40509;32.858;-116.858;2023-05-09T03:24:31;98088.38;;;22.33;49.31
53900;BME280;40509;32.858;-116.858;2023-05-09T03:26:58;98082.09;;;22.44;48.97
53900;BME280;40509;32.858;-116.858;2023-05-09T03:29:26;98089.28;;;22.42;48.98
53900;BME280;40509;32.858;-116.858;2023-05-09T03:31:53;98092.59;;;22.44;48.78
53900;BME280;40509;32.858;-116.858;2023-05-09T03:34:21;98086.03;;;22.30;48.98
53900;BME280;40509;32.858;-116.858;2023-05-09T03:36:48;98075.91;;;22.35;49.09
53900;BME280;40509;32.858;-116.858;2023-05-09T03:39:15;98089.78;;;22.27;49.20
53900;BME280;40509;32.858;-116.858;2023-05-09T03:41:45;98092.19;;;22.20;49.53
53900;BME280;40509;32.858;-116.858;2023-05-09T03:44:13;98089.19;;;22.33;49.28
53900;BME280;40509;32.858;-116.858;2023-05-09T03:46:40;98090.47;;;22.29;49.39
53900;BME280;40509;32.858;-116.858;2023-05-09T03:49:08;98096.03;;;22.26;49.41
53900;BME280;40509;32.858;-116.858;2023-05-09T03:51:36;98093.63;;;22.33;49.29
53900;BME280;40509;32.858;-116.858;2023-05-09T03:54:08;98094.88;;;22.29;49.65
53900;BME280;40509;32.858;-116.858;2023-05-09T03:56:35;98097.84;;;22.26;49.56
53900;BME280;40509;32.858;-116.858;2023-05-09T03:59:03;98090.47;;;22.29;49.55
53900;BME280;40509;32.858;-116.858;2023-05-09T04:01:32;98087.31;;;22.26;49.42
53900;BME280;40509;32.858;-116.858;2023-05-09T04:04:01;98088.28;;;22.24;49.36
53900;BME280;40509;32.858;-116.858;2023-05-09T04:06:32;98094.38;;;22.25;49.41
53900;BME280;40509;32.858;-116.858;2023-05-09T04:09:00;98093.84;;;22.21;49.44
53900;BME280;40509;32.858;-116.858;2023-05-09T04:11:27;98093.34;;;22.18;49.39
53900;BME280;40509;32.858;-116.858;2023-05-09T04:13:55;98097.09;;;22.15;49.77
53900;BME280;40509;32.858;-116.858;2023-05-09T04:16:30;98090.84;;;22.16;49.71
53900;BME280;40509;32.858;-116.858;2023-05-09T04:18:57;98093.47;;;22.16;49.68
53900;BME280;40509;32.858;-116.858;2023-05-09T04:21:25;98096.78;;;22.18;49.65
53900;BME280;40509;32.858;-116.858;2023-05-09T04:23:56;98100.41;;;22.17;49.50
53900;BME280;40509;32.858;-116.858;2023-05-09T04:26:31;98104.00;;;22.16;49.55
53900;BME280;40509;32.858;-116.858;2023-05-09T04:29:00;98099.84;;;22.14;49.62
53900;BME280;40509;32.858;-116.858;2023-05-09T04:31:27;98111.53;;;22.11;49.80
53900;BME280;40509;32.858;-116.858;2023-05-09T04:33:55;98110.03;;;22.09;49.90
53900;BME280;40509;32.858;-116.858;2023-05-09T04:36:25;98110.19;;;22.07;49.82
53900;BME280;40509;32.858;-116.858;2023-05-09T04:38:58;98113.31;;;22.11;49.61
53900;BME280;40509;32.858;-116.858;2023-05-09T04:41:26;98117.38;;;22.05;49.92
53900;BME280;40509;32.858;-116.858;2023-05-09T04:43:54;98116.25;;;22.08;49.81
53900;BME280;40509;32.858;-116.858;2023-05-09T04:46:23;98114.81;;;22.13;49.43
53900;BME280;40509;32.858;-116.858;2023-05-09T04:48:52;98118.72;;;22.09;49.79
53900;BME280;40509;32.858;-116.858;2023-05-09T04:51:20;98111.00;;;22.08;49.87
53900;BME280;40509;32.858;-116.858;2023-05-09T04:53:47;98113.63;;;22.08;49.85
53900;BME280;40509;32.858;-116.858;2023-05-09T04:56:16;98108.75;;;22.13;49.55
53900;BME280;40509;32.858;-116.858;2023-05-09T04:58:45;98111.06;;;22.16;49.35
53900;BME280;40509;32.858;-116.858;2023-05-09T05:01:13;98104.31;;;22.13;49.42
53900;BME280;40509;32.858;-116.858;2023-05-09T05:03:40;98112.72;;;22.17;49.43
53900;BME280;40509;32.858;-116.858;2023-05-09T05:06:08;98109.94;;;22.18;49.33
53900;BME280;40509;32.858;-116.858;2023-05-09T05:08:36;98114.50;;;22.16;49.44
53900;BME280;40509;32.858;-116.858;2023-05-09T05:11:03;98110.91;;;22.17;49.39
53900;BME280;40509;32.858;-116.858;2023-05-09T05:13:31;98117.13;;;22.16;49.10
53900;BME280;40509;32.858;-116.858;2023-05-09T05:16:00;98115.50;;;22.15;49.17
53900;BME280;40509;32.858;-116.858;2023-05-09T05:18:28;98118.13;;;22.15;49.41
53900;BME280;40509;32.858;-116.858;2023-05-09T05:20:55;98120.88;;;22.14;49.32
53900;BME280;40509;32.858;-116.858;2023-05-09T05:23:23;98114.00;;;22.13;49.30
53900;BME280;40509;32.858;-116.858;2023-05-09T05:25:53;98114.81;;;22.13;49.08
53900;BME280;40509;32.858;-116.858;2023-05-09T05:28:20;98114.00;;;22.13;49.14
53900;BME280;40509;32.858;-116.858;2023-05-09T05:30:47;98113.47;;;22.09;49.13
53900;BME280;40509;32.858;-116.858;2023-05-09T05:33:15;98114.44;;;22.08;49.05
53900;BME280;40509;32.858;-116.858;2023-05-09T05:35:42;98113.78;;;22.06;49.15
53900;BME280;40509;32.858;-116.858;2023-05-09T05:38:10;98118.66;;;22.01;49.28
53900;BME280;40509;32.858;-116.858;2023-05-09T05:40:38;98117.69;;;22.02;49.37
53900;BME280;40509;32.858;-116.858;2023-05-09T05:43:07;98122.56;;;21.97;49.42
53900;BME280;40509;32.858;-116.858;2023-05-09T05:45:36;98110.38;;;21.96;49.32
53900;BME280;40509;32.858;-116.858;2023-05-09T05:48:06;98112.84;;;21.97;49.44
53900;BME280;40509;32.858;-116.858;2023-05-09T05:50:33;98118.13;;;21.97;49.45
53900;BME280;40509;32.858;-116.858;2023-05-09T05:53:03;98110.53;;;21.94;49.44
53900;BME280;40509;32.858;-116.858;2023-05-09T05:55:30;98120.22;;;21.94;49.31
53900;BME280;40509;32.858;-116.858;2023-05-09T05:57:58;98122.56;;;21.97;49.24
53900;BME280;40509;32.858;-116.858;2023-05-09T06:00:25;98128.28;;;21.92;49.48
53900;BME280;40509;32.858;-116.858;2023-05-09T06:03:03;98116.59;;;21.95;49.16
53900;BME280;40509;32.858;-116.858;2023-05-09T06:05:50;98118.25;;;21.96;49.27
53900;BME280;40509;32.858;-116.858;2023-05-09T06:08:17;98123.97;;;21.91;49.32
53900;BME280;40509;32.858;-116.858;2023-05-09T06:10:45;98126.63;;;21.91;49.26
53900;BME280;40509;32.858;-116.858;2023-05-09T06:13:12;98127.56;;;21.90;49.22
53900;BME280;40509;32.858;-116.858;2023-05-09T06:15:43;98120.81;;;21.87;49.25
53900;BME280;40509;32.858;-116.858;2023-05-09T06:18:11;98123.81;;;21.93;49.02
53900;BME280;40509;32.858;-116.858;2023-05-09T06:20:38;98121.50;;;21.89;48.99
53900;BME280;40509;32.858;-116.858;2023-05-09T06:23:05;98121.19;;;21.93;49.24
53900;BME280;40509;32.858;-116.858;2023-05-09T06:25:33;98123.53;;;21.96;48.87
53900;BME280;40509;32.858;-116.858;2023-05-09T06:28:00;98118.03;;;21.89;49.02
53900;BME280;40509;32.858;-116.858;2023-05-09T06:30:27;98126.38;;;21.84;49.30
53900;BME280;40509;32.858;-116.858;2023-05-09T06:32:54;98123.59;;;21.86;49.06
53900;BME280;40509;32.858;-116.858;2023-05-09T06:35:23;98120.00;;;21.87;49.10
53900;BME280;40509;32.858;-116.858;2023-05-09T06:37:50;98115.88;;;21.84;49.22
53900;BME280;40509;32.858;-116.858;2023-05-09T06:40:18;98120.81;;;21.87;48.92
53900;BME280;40509;32.858;-116.858;2023-05-09T06:42:45;98111.19;;;21.78;49.20
53900;BME280;40509;32.858;-116.858;2023-05-09T06:45:13;98121.03;;;21.76;49.25
53900;BME280;40509;32.858;-116.858;2023-05-09T06:47:40;98112.84;;;21.79;49.06
53900;BME280;40509;32.858;-116.858;2023-05-09T06:50:07;98121.31;;;21.73;49.40
53900;BME280;40509;32.858;-116.858;2023-05-09T06:52:34;98118.69;;;21.73;49.17
53900;BME280;40509;32.858;-116.858;2023-05-09T06:55:02;98119.69;;;21.72;49.30
53900;BME280;40509;32.858;-116.858;2023-05-09T06:57:30;98113.44;;;21.73;49.17
53900;BME280;40509;32.858;-116.858;2023-05-09T06:59:57;98118.56;;;21.75;49.13
53900;BME280;40509;32.858;-116.858;2023-05-09T07:02:24;98122.97;;;21.74;49.15
53900;BME280;40509;32.858;-116.858;2023-05-09T07:04:51;98119.69;;;21.72;49.31
53900;BME280;40509;32.858;-116.858;2023-05-09T07:07:19;98122.31;;;21.72;49.18
53900;BME280;40509;32.858;-116.858;2023-05-09T07:09:46;98121.47;;;21.71;49.04
53900;BME280;40509;32.858;-116.858;2023-05-09T07:12:13;98119.69;;;21.72;49.14
53900;BME280;40509;32.858;-116.858;2023-05-09T07:14:40;98123.28;;;21.71;49.18
53900;BME280;40509;32.858;-116.858;2023-05-09T07:17:07;98120.94;;;21.68;48.96
53900;BME280;40509;32.858;-116.858;2023-05-09T07:19:34;98111.25;;;21.68;49.15
53900;BME280;40509;32.858;-116.858;2023-05-09T07:22:01;98110.72;;;21.65;49.25
53900;BME280;40509;32.858;-116.858;2023-05-09T07:24:29;98113.72;;;21.70;48.92
53900;BME280;40509;32.858;-116.858;2023-05-09T07:26:56;98115.97;;;21.65;48.96
53900;BME280;40509;32.858;-116.858;2023-05-09T07:29:23;98107.28;;;21.64;49.08
53900;BME280;40509;32.858;-116.858;2023-05-09T07:31:51;98108.94;;;21.65;48.91
53900;BME280;40509;32.858;-116.858;2023-05-09T07:34:19;98114.91;;;21.58;49.16
53900;BME280;40509;32.858;-116.858;2023-05-09T07:36:46;98110.47;;;21.58;49.28
53900;BME280;40509;32.858;-116.858;2023-05-09T07:39:13;98109.34;;;21.61;49.20
53900;BME280;40509;32.858;-116.858;2023-05-09T07:41:41;98103.28;;;21.60;48.87
53900;BME280;40509;32.858;-116.858;2023-05-09T07:44:08;98107.28;;;21.64;48.87
53900;BME280;40509;32.858;-116.858;2023-05-09T07:46:36;98108.53;;;21.60;49.02
53900;BME280;40509;32.858;-116.858;2023-05-09T07:49:04;98111.31;;;21.59;48.97
53900;BME280;40509;32.858;-116.858;2023-05-09T07:51:31;98106.59;;;21.52;49.20
53900;BME280;40509;32.858;-116.858;2023-05-09T07:53:58;98102.22;;;21.53;49.08
53900;BME280;40509;32.858;-116.858;2023-05-09T07:56:25;98101.22;;;21.54;49.04
53900;BME280;40509;32.858;-116.858;2023-05-09T07:58:52;98097.38;;;21.48;49.02
53900;BME280;40509;32.858;-116.858;2023-05-09T08:01:19;98094.50;;;21.42;49.00
53900;BME280;40509;32.858;-116.858;2023-05-09T08:03:46;98097.38;;;21.48;49.07
53900;BME280;40509;32.858;-116.858;2023-05-09T08:06:14;98095.34;;;21.42;49.05
53900;BME280;40509;32.858;-116.858;2023-05-09T08:08:41;98088.97;;;21.45;48.90
53900;BME280;40509;32.858;-116.858;2023-05-09T08:11:09;98089.91;;;21.53;48.76
53900;BME280;40509;32.858;-116.858;2023-05-09T08:13:36;98085.34;;;21.46;49.16
53900;BME280;40509;32.858;-116.858;2023-05-09T08:16:04;98083.19;;;21.41;49.07
53900;BME280;40509;32.858;-116.858;2023-05-09T08:18:31;98086.34;;;21.45;49.05
53900;BME280;40509;32.858;-116.858;2023-05-09T08:20:58;98084.53;;;21.45;48.76
53900;BME280;40509;32.858;-116.858;2023-05-09T08:23:26;98084.84;;;21.42;48.85
53900;BME280;40509;32.858;-116.858;2023-05-09T08:25:56;98080.78;;;21.48;48.94
53900;BME280;40509;32.858;-116.858;2023-05-09T08:28:24;98076.25;;;21.40;48.73
53900;BME280;40509;32.858;-116.858;2023-05-09T08:30:54;98075.31;;;21.41;48.91
53900;BME280;40509;32.858;-116.858;2023-05-09T08:33:22;98080.16;;;21.36;48.84
53900;BME280;40509;32.858;-116.858;2023-05-09T08:35:53;98081.97;;;21.35;48.58
53900;BME280;40509;32.858;-116.858;2023-05-09T08:38:21;98067.19;;;21.34;48.83
53900;BME280;40509;32.858;-116.858;2023-05-09T08:40:49;98064.66;;;21.43;48.58
53900;BME280;40509;32.858;-116.858;2023-05-09T08:43:19;98067.19;;;21.34;48.69
53900;BME280;40509;32.858;-116.858;2023-05-09T08:45:53;98069.66;;;21.36;48.71
53900;BME280;40509;32.858;-116.858;2023-05-09T08:48:24;98064.72;;;21.33;48.62
53900;BME280;40509;32.858;-116.858;2023-05-09T08:50:55;98064.84;;;21.31;48.33
53900;BME280;40509;32.858;-116.858;2023-05-09T08:53:22;98060.13;;;21.35;48.72
53900;BME280;40509;32.858;-116.858;2023-05-09T08:55:50;98067.75;;;21.28;48.87
53900;BME280;40509;32.858;-116.858;2023-05-09T08:58:20;98062.09;;;21.33;48.75
53900;BME280;40509;32.858;-116.858;2023-05-09T09:00:48;98063.84;;;21.32;48.60
53900;BME280;40509;32.858;-116.858;2023-05-09T09:03:19;98060.19;;;21.25;48.88
53900;BME280;40509;32.858;-116.858;2023-05-09T09:05:47;98058.09;;;21.29;48.68
53900;BME280;40509;32.858;-116.858;2023-05-09T09:08:16;98056.59;;;21.26;48.56
53900;BME280;40509;32.858;-116.858;2023-05-09T09:10:44;98058.50;;;21.24;48.83
53900;BME280;40509;32.858;-116.858;2023-05-09T09:13:16;98053.16;;;21.26;48.68
53900;BME280;40509;32.858;-116.858;2023-05-09T09:15:45;98050.38;;;21.27;48.57
53900;BME280;40509;32.858;-116.858;2023-05-09T09:18:22;98045.53;;;21.22;48.50
53900;BME280;40509;32.858;-116.858;2023-05-09T09:21:00;98038.22;;;21.26;48.66
53900;BME280;40509;32.858;-116.858;2023-05-09T09:23:31;98035.72;;;21.25;48.44
53900;BME280;40509;32.858;-116.858;2023-05-09T09:26:00;98032.88;;;21.18;48.76
53900;BME280;40509;32.858;-116.858;2023-05-09T09:28:30;98037.16;;;21.19;48.86
53900;BME280;40509;32.858;-116.858;2023-05-09T09:30:57;98036.00;;;21.21;48.59
53900;BME280;40509;32.858;-116.858;2023-05-09T09:33:26;98044.88;;;21.20;48.37
53900;BME280;40509;32.858;-116.858;2023-05-09T09:35:55;98038.78;;;21.20;48.63
53900;BME280;40509;32.858;-116.858;2023-05-09T09:38:23;98040.28;;;21.22;48.52
53900;BME280;40509;32.858;-116.858;2023-05-09T09:43:17;98039.09;;;21.17;48.69
53900;BME280;40509;32.858;-116.858;2023-05-09T09:45:48;98031.34;;;21.15;48.42
53900;BME280;40509;32.858;-116.858;2023-05-09T09:48:25;98036.47;;;21.17;48.41
53900;BME280;40509;32.858;-116.858;2023-05-09T09:50:55;98043.50;;;21.16;48.79
53900;BME280;40509;32.858;-116.858;2023-05-09T09:53:25;98039.22;;;21.15;48.46
53900;BME280;40509;32.858;-116.858;2023-05-09T09:55:56;98035.78;;;21.15;48.38
53900;BME280;40509;32.858;-116.858;2023-05-09T09:58:24;98043.78;;;21.13;48.79
53900;BME280;40509;32.858;-116.858;2023-05-09T10:01:05;98047.56;;;21.11;48.51
53900;BME280;40509;32.858;-116.858;2023-05-09T10:03:45;98049.03;;;21.13;48.78
53900;BME280;40509;32.858;-116.858;2023-05-09T10:06:14;98051.81;;;21.12;48.50
53900;BME280;40509;32.858;-116.858;2023-05-09T10:08:43;98046.03;;;21.08;48.57
53900;BME280;40509;32.858;-116.858;2023-05-09T10:11:13;98045.91;;;21.10;48.38
53900;BME280;40509;32.858;-116.858;2023-05-09T10:13:41;98043.13;;;21.11;48.60
53900;BME280;40509;32.858;-116.858;2023-05-09T10:16:10;98039.81;;;21.09;48.34
53900;BME280;40509;32.858;-116.858;2023-05-09T10:18:39;98037.47;;;21.06;48.76
53900;BME280;40509;32.858;-116.858;2023-05-09T10:21:11;98039.94;;;21.08;48.68
53900;BME280;40509;32.858;-116.858;2023-05-09T10:23:45;98036.13;;;21.02;48.71
53900;BME280;40509;32.858;-116.858;2023-05-09T10:26:22;98037.63;;;21.04;48.60
53900;BME280;40509;32.858;-116.858;2023-05-09T10:28:54;98036.94;;;21.02;48.84
53900;BME280;40509;32.858;-116.858;2023-05-09T10:31:28;98035.16;;;21.03;48.82
53900;BME280;40509;32.858;-116.858;2023-05-09T10:34:00;98039.56;;;21.02;48.82
53900;BME280;40509;32.858;-116.858;2023-05-09T10:36:31;98038.59;;;21.03;48.85
53900;BME280;40509;32.858;-116.858;2023-05-09T10:38:59;98026.44;;;21.02;48.69
53900;BME280;40509;32.858;-116.858;2023-05-09T10:41:28;98029.75;;;21.04;48.36
53900;BME280;40509;32.858;-116.858;2023-05-09T10:43:55;98028.38;;;21.00;48.84
53900;BME280;40509;32.858;-116.858;2023-05-09T10:46:24;98028.38;;;21.00;48.76
53900;BME280;40509;32.858;-116.858;2023-05-09T10:48:53;98033.50;;;21.02;48.84
53900;BME280;40509;32.858;-116.858;2023-05-09T10:51:20;98026.72;;;20.99;48.79
53900;BME280;40509;32.858;-116.858;2023-05-09T10:53:50;98024.25;;;20.98;48.75
53900;BME280;40509;32.858;-116.858;2023-05-09T10:56:30;98028.69;;;20.97;48.85
53900;BME280;40509;32.858;-116.858;2023-05-09T10:58:58;98031.16;;;20.99;48.60
53900;BME280;40509;32.858;-116.858;2023-05-09T11:01:33;98036.81;;;20.94;48.18
53900;BME280;40509;32.858;-116.858;2023-05-09T11:04:13;98032.44;;;20.95;48.55
53900;BME280;40509;32.858;-116.858;2023-05-09T11:06:50;98032.81;;;21.00;48.86
53900;BME280;40509;32.858;-116.858;2023-05-09T11:09:34;98029.81;;;20.95;48.75
53900;BME280;40509;32.858;-116.858;2023-05-09T11:17:04;98036.97;;;20.93;48.86
53900;BME280;40509;32.858;-116.858;2023-05-09T11:19:39;98029.09;;;20.93;48.71
53900;BME280;40509;32.858;-116.858;2023-05-09T11:25:11;98022.88;;;20.94;48.56
53900;BME280;40509;32.858;-116.858;2023-05-09T11:27:44;98022.50;;;20.88;48.63
53900;BME280;40509;32.858;-116.858;2023-05-09T11:30:14;98019.88;;;20.88;48.88
53900;BME280;40509;32.858;-116.858;2023-05-09T11:32:53;98020.41;;;20.92;48.75
53900;BME280;40509;32.858;-116.858;2023-05-09T11:35:24;98013.66;;;20.89;48.69
53900;BME280;40509;32.858;-116.858;2023-05-09T11:37:59;98022.78;;;20.85;48.68
53900;BME280;40509;32.858;-116.858;2023-05-09T11:40:28;98012.16;;;20.87;48.59
53900;BME280;40509;32.858;-116.858;2023-05-09T11:42:57;98020.97;;;20.86;48.74
53900;BME280;40509;32.858;-116.858;2023-05-09T11:45:29;98019.88;;;20.88;48.43
53900;BME280;40509;32.858;-116.858;2023-05-09T11:47:57;98017.53;;;20.85;48.51
53900;BME280;40509;32.858;-116.858;2023-05-09T11:50:26;98014.91;;;20.85;48.74
53900;BME280;40509;32.858;-116.858;2023-05-09T11:52:53;98020.16;;;20.85;48.47
53900;BME280;40509;32.858;-116.858;2023-05-09T11:55:21;98021.44;;;20.81;48.63
53900;BME280;40509;32.858;-116.858;2023-05-09T11:57:50;98018.81;;;20.81;48.55
53900;BME280;40509;32.858;-116.858;2023-05-09T12:00:19;98023.75;;;20.84;48.74
53900;BME280;40509;32.858;-116.858;2023-05-09T12:02:47;98017.13;;;20.80;48.63
53900;BME280;40509;32.858;-116.858;2023-05-09T12:05:16;98019.75;;;20.80;48.51
53900;BME280;40509;32.858;-116.858;2023-05-09T12:07:45;98009.28;;;20.80;48.51
53900;BME280;40509;32.858;-116.858;2023-05-09T12:10:15;98005.28;;;20.76;48.82
53900;BME280;40509;32.858;-116.858;2023-05-09T12:12:44;98015.63;;;20.78;48.59
53900;BME280;40509;32.858;-116.858;2023-05-09T12:15:12;98020.22;;;20.76;48.46
53900;BME280;40509;32.858;-116.858;2023-05-09T12:17:40;98020.22;;;20.76;48.57
53900;BME280;40509;32.858;-116.858;2023-05-09T12:20:09;98016.19;;;20.81;48.51
53900;BME280;40509;32.858;-116.858;2023-05-09T12:22:36;98023.78;;;20.75;48.77
53900;BME280;40509;32.858;-116.858;2023-05-09T12:25:07;98028.22;;;20.74;48.76
53900;BME280;40509;32.858;-116.858;2023-05-09T12:27:36;98028.06;;;20.76;48.64
53900;BME280;40509;32.858;-116.858;2023-05-09T12:30:04;98034.28;;;20.75;48.49
53900;BME280;40509;32.858;-116.858;2023-05-09T12:32:35;98038.72;;;20.74;48.45
53900;BME280;40509;32.858;-116.858;2023-05-09T12:35:08;98036.09;;;20.74;48.56
53900;BME280;40509;32.858;-116.858;2023-05-09T12:37:36;98045.06;;;20.71;48.43
53900;BME280;40509;32.858;-116.858;2023-05-09T12:40:08;98043.56;;;20.69;48.57
53900;BME280;40509;32.858;-116.858;2023-05-09T12:42:38;98041.06;;;20.67;48.50
53900;BME280;40509;32.858;-116.858;2023-05-09T12:45:08;98043.41;;;20.70;48.65
53900;BME280;40509;32.858;-116.858;2023-05-09T12:47:36;98053.06;;;20.70;48.27
53900;BME280;40509;32.858;-116.858;2023-05-09T12:50:11;98050.59;;;20.68;48.76
53900;BME280;40509;32.858;-116.858;2023-05-09T12:52:40;98054.88;;;20.69;48.41
53900;BME280;40509;32.858;-116.858;2023-05-09T12:55:11;98056.38;;;20.72;48.44
53900;BME280;40509;32.858;-116.858;2023-05-09T12:57:40;98053.91;;;20.70;48.54
53900;BME280;40509;32.858;-116.858;2023-05-09T13:00:10;98055.94;;;20.67;48.22
53900;BME280;40509;32.858;-116.858;2023-05-09T13:02:41;98055.84;;;20.68;48.42
53900;BME280;40509;32.858;-116.858;2023-05-09T13:05:09;98062.75;;;20.69;48.27